Time;durP1;ratioP1;P1;durP2;ratioP2;P2;SDS_P1;SDS_P2;PMS_P1;PMS_P2;Temp;Humidity;BMP_temperature;BMP_pressure;BME280_temperature;BME280_humidity;BME280_pressure;Samples;Min_cycle;Max_cycle;Signal;HPM_P1;HPM_P2
2022/08/21 00:00:19;;;;;;;;;0.33;0.33;;;;;;;;5076465;27;45230;-75
2022/08/21 00:02:49;;;;;;;;;1.00;1.00;;;;;;;;5077359;27;45474;-75
2022/08/21 00:05:14;;;;;;;;;1.00;1.00;;;;;;;;5076616;27;46170;-74
2022/08/21 00:07:40;;;;;;;;;3.00;2.00;;;;;;;;5076524;27;45517;-74
2022/08/21 00:10:06;;;;;;;;;2.00;1.00;;;;;;;;5077119;27;45478;-75
2022/08/21 00:12:31;;;;;;;;;1.00;1.00;;;;;;;;5076764;27;45411;-74
2022/08/21 00:14:56;;;;;;;;;0.67;0.33;;;;;;;;5076570;27;46738;-75
2022/08/21 00:17:22;;;;;;;;;1.00;1.00;;;;;;;;5076697;28;45521;-74
2022/08/21 00:19:47;;;;;;;;;1.00;1.00;;;;;;;;5076837;27;45370;-74
2022/08/21 00:22:13;;;;;;;;;1.00;1.00;;;;;;;;5076080;27;45346;-74
2022/08/21 00:24:38;;;;;;;;;0.33;0.33;;;;;;;;5076533;27;46067;-75
2022/08/21 00:27:03;;;;;;;;;0.00;0.00;;;;;;;;5076577;27;45505;-75
2022/08/21 00:29:28;;;;;;;;;0.00;0.00;;;;;;;;5058388;28;45263;-75
2022/08/21 00:31:54;;;;;;;;;1.00;1.00;;;;;;;;5076648;28;45375;-74
2022/08/21 00:34:19;;;;;;;;;0.00;0.00;;;;;;;;5076798;27;45538;-77
2022/08/21 00:36:44;;;;;;;;;1.00;1.00;;;;;;;;5075900;27;45346;-75
2022/08/21 00:39:09;;;;;;;;;0.00;0.00;;;;;;;;5076476;28;45573;-75
2022/08/21 00:41:36;;;;;;;;;1.00;1.00;;;;;;;;5076798;27;45409;-74
2022/08/21 00:44:03;;;;;;;;;0.00;0.00;;;;;;;;5076135;27;46313;-74
2022/08/21 00:46:28;;;;;;;;;1.67;1.67;;;;;;;;5076334;28;45531;-76
2022/08/21 00:48:54;;;;;;;;;1.00;1.00;;;;;;;;5076586;27;45343;-75
2022/08/21 00:51:25;;;;;;;;;0.67;0.67;;;;;;;;5076316;28;45312;-74
2022/08/21 00:53:52;;;;;;;;;0.33;0.33;;;;;;;;5075918;28;46188;-75
2022/08/21 00:56:18;;;;;;;;;0.33;0.33;;;;;;;;5076284;27;45468;-74
2022/08/21 00:58:45;;;;;;;;;0.67;0.33;;;;;;;;5076449;27;45391;-74
2022/08/21 01:01:10;;;;;;;;;2.00;1.00;;;;;;;;5075886;28;45447;-75
2022/08/21 01:03:36;;;;;;;;;0.33;0.33;;;;;;;;5075991;27;47294;-75
2022/08/21 01:06:01;;;;;;;;;2.00;0.00;;;;;;;;5075942;27;45744;-76
2022/08/21 01:08:28;;;;;;;;;1.00;1.00;;;;;;;;5075987;28;45479;-75
2022/08/21 01:10:54;;;;;;;;;0.00;0.00;;;;;;;;5076291;28;45293;-76
2022/08/21 01:13:24;;;;;;;;;0.67;0.67;;;;;;;;5074945;27;46309;-75
2022/08/21 01:15:52;;;;;;;;;3.33;1.00;;;;;;;;5075379;27;45396;-76
2022/08/21 01:18:18;;;;;;;;;2.00;0.00;;;;;;;;5075766;28;45357;-76
2022/08/21 01:21:01;;;;;;;;;1.00;1.00;;;;;;;;5075597;27;45317;-76
2022/08/21 01:23:27;;;;;;;;;1.00;1.00;;;;;;;;5075800;27;45259;-76
2022/08/21 01:25:52;;;;;;;;;1.00;0.00;;;;;;;;5075660;27;45368;-76
2022/08/21 01:28:17;;;;;;;;;2.67;1.67;;;;;;;;5076113;27;45232;-75
2022/08/21 01:30:43;;;;;;;;;0.33;0.33;;;;;;;;5076026;27;45393;-76
2022/08/21 01:33:09;;;;;;;;;0.67;0.67;;;;;;;;5075373;27;46328;-75
2022/08/21 01:35:34;;;;;;;;;2.00;0.67;;;;;;;;5075466;27;45314;-76
2022/08/21 01:37:59;;;;;;;;;1.33;1.00;;;;;;;;5075736;28;45353;-75
2022/08/21 01:40:24;;;;;;;;;0.00;0.00;;;;;;;;5075516;27;45465;-75
2022/08/21 01:42:49;;;;;;;;;0.33;0.33;;;;;;;;5075556;28;46077;-75
2022/08/21 01:45:15;;;;;;;;;0.00;0.00;;;;;;;;5075439;27;45588;-76
2022/08/21 01:47:40;;;;;;;;;0.67;0.67;;;;;;;;5067353;28;45366;-74
2022/08/21 01:50:08;;;;;;;;;1.00;0.00;;;;;;;;5074407;27;45343;-75
2022/08/21 01:52:33;;;;;;;;;0.00;0.00;;;;;;;;5075670;27;45419;-76
2022/08/21 01:54:58;;;;;;;;;1.00;0.00;;;;;;;;5075664;28;45359;-75
2022/08/21 01:57:24;;;;;;;;;0.67;0.67;;;;;;;;5075385;27;45402;-76
2022/08/21 01:59:49;;;;;;;;;0.00;0.00;;;;;;;;5075840;28;45383;-76
2022/08/21 02:02:14;;;;;;;;;0.00;0.00;;;;;;;;5074726;27;46454;-76
2022/08/21 02:04:39;;;;;;;;;1.00;1.00;;;;;;;;5075181;28;45712;-76
2022/08/21 02:07:05;;;;;;;;;0.33;0.33;;;;;;;;5075538;27;45446;-76
2022/08/21 02:09:30;;;;;;;;;2.00;1.00;;;;;;;;5075332;28;45472;-77
2022/08/21 02:11:55;;;;;;;;;2.00;0.67;;;;;;;;5075096;28;45336;-76
2022/08/21 02:14:20;;;;;;;;;0.33;0.33;;;;;;;;5075243;28;45480;-76
2022/08/21 02:16:46;;;;;;;;;1.00;1.00;;;;;;;;5075431;27;45391;-76
2022/08/21 02:19:13;;;;;;;;;0.00;0.00;;;;;;;;5075179;28;45473;-75
2022/08/21 02:21:38;;;;;;;;;2.33;0.67;;;;;;;;5074751;27;46263;-76
2022/08/21 02:24:03;;;;;;;;;2.33;1.00;;;;;;;;5076109;27;46087;-75
2022/08/21 02:26:29;;;;;;;;;0.00;0.00;;;;;;;;5078680;27;45631;-74
2022/08/21 02:28:54;;;;;;;;;1.00;1.00;;;;;;;;5078789;27;45422;-75
2022/08/21 02:31:19;;;;;;;;;0.00;0.00;;;;;;;;5078418;27;46138;-75
2022/08/21 02:33:45;;;;;;;;;0.67;0.67;;;;;;;;5077962;27;45367;-75
2022/08/21 02:36:11;;;;;;;;;1.33;0.33;;;;;;;;5078191;27;45380;-75
2022/08/21 02:38:38;;;;;;;;;0.00;0.00;;;;;;;;5078226;27;45383;-75
2022/08/21 02:41:04;;;;;;;;;1.00;1.00;;;;;;;;5077911;27;46399;-75
2022/08/21 02:43:29;;;;;;;;;2.00;0.00;;;;;;;;5078173;27;45309;-75
2022/08/21 02:45:56;;;;;;;;;0.33;0.33;;;;;;;;5078238;27;45438;-74
2022/08/21 02:48:23;;;;;;;;;0.00;0.00;;;;;;;;5078151;27;45367;-75
2022/08/21 02:50:52;;;;;;;;;0.33;0.33;;;;;;;;5078347;28;46286;-75
2022/08/21 02:53:18;;;;;;;;;1.00;1.00;;;;;;;;5077574;27;46319;-75
2022/08/21 02:55:44;;;;;;;;;1.33;0.67;;;;;;;;5077814;27;45444;-75
2022/08/21 02:58:10;;;;;;;;;1.00;1.00;;;;;;;;5077947;27;45383;-75
2022/08/21 03:00:36;;;;;;;;;0.67;0.67;;;;;;;;5077602;27;47131;-74
2022/08/21 03:03:01;;;;;;;;;1.00;1.00;;;;;;;;5077908;27;45420;-74
2022/08/21 03:05:31;;;;;;;;;0.00;0.00;;;;;;;;5077846;27;45353;-75
2022/08/21 03:07:58;;;;;;;;;2.00;0.33;;;;;;;;5077825;27;45343;-74
2022/08/21 03:10:24;;;;;;;;;1.00;1.00;;;;;;;;5077850;27;47333;-76
2022/08/21 03:12:50;;;;;;;;;1.33;1.00;;;;;;;;5077416;27;45413;-75
2022/08/21 03:15:17;;;;;;;;;1.00;1.00;;;;;;;;5077728;27;45545;-75
2022/08/21 03:17:42;;;;;;;;;0.00;0.00;;;;;;;;5077547;27;45320;-74
2022/08/21 03:20:08;;;;;;;;;1.00;0.33;;;;;;;;5077333;28;47201;-74
2022/08/21 03:22:33;;;;;;;;;0.33;0.33;;;;;;;;5077742;27;45255;-75
2022/08/21 03:24:59;;;;;;;;;2.00;0.33;;;;;;;;5077430;27;45649;-75
2022/08/21 03:27:26;;;;;;;;;2.00;2.00;;;;;;;;5077767;27;45532;-76
2022/08/21 03:29:52;;;;;;;;;1.33;1.33;;;;;;;;5076882;27;45430;-76
2022/08/21 03:32:17;;;;;;;;;1.67;1.67;;;;;;;;5076947;27;45650;-75
2022/08/21 03:34:42;;;;;;;;;1.00;1.00;;;;;;;;5077542;27;45330;-75
2022/08/21 03:37:07;;;;;;;;;0.33;0.00;;;;;;;;5076398;27;45448;-75
2022/08/21 03:39:33;;;;;;;;;3.00;2.00;;;;;;;;5077503;27;46257;-75
2022/08/21 03:41:59;;;;;;;;;2.00;1.00;;;;;;;;5077324;27;45331;-75
2022/08/21 03:44:25;;;;;;;;;1.00;1.00;;;;;;;;5077607;27;45453;-75
2022/08/21 03:46:50;;;;;;;;;0.33;0.00;;;;;;;;5076622;27;45364;-73
2022/08/21 03:49:15;;;;;;;;;0.00;0.00;;;;;;;;5077233;27;45491;-76
2022/08/21 03:51:41;;;;;;;;;1.00;1.00;;;;;;;;5077627;27;45356;-75
2022/08/21 03:54:06;;;;;;;;;0.00;0.00;;;;;;;;5076903;27;45398;-76
2022/08/21 03:56:31;;;;;;;;;0.67;0.67;;;;;;;;5077582;28;45433;-75
2022/08/21 03:58:57;;;;;;;;;0.67;0.67;;;;;;;;5076691;27;46095;-75
2022/08/21 04:01:22;;;;;;;;;0.67;0.67;;;;;;;;5076454;27;45234;-76
2022/08/21 04:03:47;;;;;;;;;0.00;0.00;;;;;;;;5097417;27;45201;-75
2022/08/21 04:06:13;;;;;;;;;1.00;1.00;;;;;;;;5097657;27;45330;-75
2022/08/21 04:08:38;;;;;;;;;0.00;0.00;;;;;;;;5097559;27;46124;-74
2022/08/21 04:11:03;;;;;;;;;0.33;0.33;;;;;;;;5097248;27;45382;-74
2022/08/21 04:13:29;;;;;;;;;0.00;0.00;;;;;;;;5097259;27;45564;-74
2022/08/21 04:15:55;;;;;;;;;0.00;0.00;;;;;;;;5097244;27;45311;-74
2022/08/21 04:18:20;;;;;;;;;0.33;0.33;;;;;;;;5097040;27;45308;-74
2022/08/21 04:20:48;;;;;;;;;1.00;1.00;;;;;;;;5097091;27;45444;-75
2022/08/21 04:23:13;;;;;;;;;0.00;0.00;;;;;;;;5097266;27;45310;-74
2022/08/21 04:25:38;;;;;;;;;1.00;1.00;;;;;;;;5097259;27;45353;-74
2022/08/21 04:28:03;;;;;;;;;0.33;0.00;;;;;;;;5096788;27;46260;-75
2022/08/21 04:30:29;;;;;;;;;0.00;0.00;;;;;;;;5096792;27;45443;-75
2022/08/21 04:32:55;;;;;;;;;1.00;1.00;;;;;;;;5097022;27;45386;-74
2022/08/21 04:35:22;;;;;;;;;0.33;0.33;;;;;;;;5097129;27;45234;-74
2022/08/21 04:37:48;;;;;;;;;1.00;1.00;;;;;;;;5096709;27;46290;-74
2022/08/21 04:40:15;;;;;;;;;0.33;0.33;;;;;;;;5096698;27;45414;-75
2022/08/21 04:42:44;;;;;;;;;0.00;0.00;;;;;;;;5096690;27;45554;-74
2022/08/21 04:45:15;;;;;;;;;1.67;0.33;;;;;;;;5096636;27;45433;-75
2022/08/21 04:47:40;;;;;;;;;0.00;0.00;;;;;;;;5096544;27;45563;-74
2022/08/21 04:50:06;;;;;;;;;1.00;1.00;;;;;;;;5096780;27;45555;-73
2022/08/21 04:52:31;;;;;;;;;1.00;1.00;;;;;;;;5096634;27;45321;-74
2022/08/21 04:54:56;;;;;;;;;1.00;1.00;;;;;;;;5096900;27;45376;-74
2022/08/21 04:57:21;;;;;;;;;0.67;0.67;;;;;;;;5096292;27;46925;-75
2022/08/21 04:59:48;;;;;;;;;0.00;0.00;;;;;;;;5096456;27;45421;-75
2022/08/21 05:02:14;;;;;;;;;0.00;0.00;;;;;;;;5089151;27;45467;-75
2022/08/21 05:04:43;;;;;;;;;1.33;0.67;;;;;;;;5075672;28;45586;-74
2022/08/21 05:07:11;;;;;;;;;0.00;0.00;;;;;;;;5075991;27;46107;-76
2022/08/21 05:09:37;;;;;;;;;1.00;1.00;;;;;;;;5075701;28;45537;-75
2022/08/21 05:12:03;;;;;;;;;2.00;0.67;;;;;;;;5075908;28;46822;-74
2022/08/21 05:14:28;;;;;;;;;0.00;0.00;;;;;;;;5075332;27;45467;-75
2022/08/21 05:16:53;;;;;;;;;1.00;1.00;;;;;;;;5075919;27;46247;-74
2022/08/21 05:19:19;;;;;;;;;0.00;0.00;;;;;;;;5075969;27;45568;-75
2022/08/21 05:21:47;;;;;;;;;1.00;1.00;;;;;;;;5075718;27;45497;-75
2022/08/21 05:24:12;;;;;;;;;1.00;0.00;;;;;;;;5075913;27;45439;-76
2022/08/21 05:26:38;;;;;;;;;1.33;0.00;;;;;;;;5075540;27;45953;-75
2022/08/21 05:29:03;;;;;;;;;1.00;1.00;;;;;;;;5076076;28;45332;-74
2022/08/21 05:31:29;;;;;;;;;1.00;1.00;;;;;;;;5075961;27;45310;-75
2022/08/21 05:33:55;;;;;;;;;1.00;1.00;;;;;;;;5075790;28;45343;-74
2022/08/21 05:36:20;;;;;;;;;1.33;0.00;;;;;;;;5075384;27;47360;-75
2022/08/21 05:38:46;;;;;;;;;0.00;0.00;;;;;;;;5075359;28;45339;-75
2022/08/21 05:41:11;;;;;;;;;2.00;1.00;;;;;;;;5075365;27;45453;-74
2022/08/21 05:43:37;;;;;;;;;1.00;1.00;;;;;;;;5075579;27;45408;-74
2022/08/21 05:46:02;;;;;;;;;1.00;1.00;;;;;;;;5075605;28;46137;-74
2022/08/21 05:48:28;;;;;;;;;1.33;1.33;;;;;;;;5075252;27;45384;-74
2022/08/21 05:50:54;;;;;;;;;0.67;0.67;;;;;;;;5075872;27;45817;-74
2022/08/21 05:53:20;;;;;;;;;1.00;1.00;;;;;;;;5075585;27;45533;-74
2022/08/21 05:55:46;;;;;;;;;1.33;1.33;;;;;;;;5075119;28;47002;-74
2022/08/21 05:58:15;;;;;;;;;0.00;0.00;;;;;;;;5075126;27;45397;-75
2022/08/21 06:00:41;;;;;;;;;1.00;1.00;;;;;;;;5079110;27;45332;-75
2022/08/21 06:03:23;;;;;;;;;1.00;0.00;;;;;;;;5078415;27;45973;-75
2022/08/21 06:05:48;;;;;;;;;2.00;1.00;;;;;;;;5078649;27;46210;-74
2022/08/21 06:08:15;;;;;;;;;1.00;1.00;;;;;;;;5078833;27;45202;-75
2022/08/21 06:10:40;;;;;;;;;1.00;1.00;;;;;;;;5078698;27;45417;-74
2022/08/21 06:13:06;;;;;;;;;0.00;0.00;;;;;;;;5078729;27;45430;-74
2022/08/21 06:15:31;;;;;;;;;0.00;0.00;;;;;;;;5078562;27;46287;-74
2022/08/21 06:17:56;;;;;;;;;2.00;0.33;;;;;;;;5078258;27;45630;-74
2022/08/21 06:20:22;;;;;;;;;0.00;0.00;;;;;;;;5078938;27;45433;-75
2022/08/21 06:22:47;;;;;;;;;2.00;1.00;;;;;;;;5078750;27;45622;-75
2022/08/21 06:25:12;;;;;;;;;1.00;1.00;;;;;;;;5078091;27;47251;-75
2022/08/21 06:27:37;;;;;;;;;1.00;1.00;;;;;;;;5078855;27;45394;-75
2022/08/21 06:30:04;;;;;;;;;1.00;1.00;;;;;;;;5078501;27;45443;-74
2022/08/21 06:32:29;;;;;;;;;0.00;0.00;;;;;;;;5078555;27;45422;-75
2022/08/21 06:34:55;;;;;;;;;0.00;0.00;;;;;;;;5078017;27;46146;-74
2022/08/21 06:37:20;;;;;;;;;0.00;0.00;;;;;;;;5078328;27;45539;-76
2022/08/21 06:39:45;;;;;;;;;0.00;0.00;;;;;;;;5078488;27;45567;-75
2022/08/21 06:42:17;;;;;;;;;0.00;0.00;;;;;;;;5078220;27;45549;-75
2022/08/21 06:44:43;;;;;;;;;1.00;1.00;;;;;;;;5077895;27;45401;-75
2022/08/21 06:47:08;;;;;;;;;1.00;0.00;;;;;;;;5078282;27;45420;-75
2022/08/21 06:49:34;;;;;;;;;1.00;1.00;;;;;;;;5078323;27;45419;-76
2022/08/21 06:51:59;;;;;;;;;0.33;0.33;;;;;;;;5078185;27;45469;-75
2022/08/21 06:54:24;;;;;;;;;0.00;0.00;;;;;;;;5077631;27;46251;-76
2022/08/21 06:56:49;;;;;;;;;1.00;1.00;;;;;;;;5078224;28;45369;-75
2022/08/21 06:59:15;;;;;;;;;0.00;0.00;;;;;;;;5078441;27;45380;-75
2022/08/21 07:01:41;;;;;;;;;1.00;1.00;;;;;;;;5077879;27;45363;-75
2022/08/21 07:04:06;;;;;;;;;0.00;0.00;;;;;;;;5077554;27;46295;-75
2022/08/21 07:06:31;;;;;;;;;0.00;0.00;;;;;;;;5078155;27;45277;-75
2022/08/21 07:08:56;;;;;;;;;0.00;0.00;;;;;;;;5077377;27;45382;-75
2022/08/21 07:11:24;;;;;;;;;0.67;0.67;;;;;;;;5077144;27;45268;-76
2022/08/21 07:13:51;;;;;;;;;0.00;0.00;;;;;;;;5077585;27;45399;-75
2022/08/21 07:16:16;;;;;;;;;0.00;0.00;;;;;;;;5077544;27;45618;-75
2022/08/21 07:18:41;;;;;;;;;0.33;0.33;;;;;;;;5078127;27;45478;-75
2022/08/21 07:21:07;;;;;;;;;0.00;0.00;;;;;;;;5077942;27;47540;-74
2022/08/21 07:23:34;;;;;;;;;2.00;1.00;;;;;;;;5077020;27;47047;-75
2022/08/21 07:26:00;;;;;;;;;1.00;0.00;;;;;;;;5077474;28;45384;-74
2022/08/21 07:28:25;;;;;;;;;1.00;1.00;;;;;;;;5077559;27;45513;-75
2022/08/21 07:30:52;;;;;;;;;1.00;1.00;;;;;;;;5077146;27;45427;-75
2022/08/21 07:33:17;;;;;;;;;1.00;1.00;;;;;;;;5058978;28;47125;-76
2022/08/21 07:35:42;;;;;;;;;2.00;0.00;;;;;;;;5077462;27;45486;-74
2022/08/21 07:38:07;;;;;;;;;1.00;1.00;;;;;;;;5076934;27;45454;-74
2022/08/21 07:40:32;;;;;;;;;0.00;0.00;;;;;;;;5077262;27;45335;-74
2022/08/21 07:42:58;;;;;;;;;0.33;0.33;;;;;;;;5077217;28;46355;-74
2022/08/21 07:45:24;;;;;;;;;0.33;0.33;;;;;;;;5077495;27;45268;-75
2022/08/21 07:47:49;;;;;;;;;2.33;1.00;;;;;;;;5077601;27;45443;-75
2022/08/21 07:50:15;;;;;;;;;2.00;0.33;;;;;;;;5076900;27;45418;-75
2022/08/21 07:52:41;;;;;;;;;0.00;0.00;;;;;;;;5077214;28;46091;-75
2022/08/21 07:55:07;;;;;;;;;0.00;0.00;;;;;;;;5077410;28;45325;-75
2022/08/21 07:57:33;;;;;;;;;0.67;0.00;;;;;;;;5077193;27;45362;-75
2022/08/21 07:59:58;;;;;;;;;0.00;0.00;;;;;;;;5077493;27;45472;-75
2022/08/21 08:02:24;;;;;;;;;0.00;0.00;;;;;;;;5077054;27;46993;-74
2022/08/21 08:04:50;;;;;;;;;1.00;1.00;;;;;;;;5076944;27;45415;-75
2022/08/21 08:07:15;;;;;;;;;0.00;0.00;;;;;;;;5076652;27;45261;-75
2022/08/21 08:09:40;;;;;;;;;1.00;1.00;;;;;;;;5077249;27;45354;-75
2022/08/21 08:12:06;;;;;;;;;2.00;0.00;;;;;;;;5076794;27;46585;-74
2022/08/21 08:14:31;;;;;;;;;0.00;0.00;;;;;;;;5076694;27;45333;-75
2022/08/21 08:16:56;;;;;;;;;0.00;0.00;;;;;;;;5076966;27;45308;-75
2022/08/21 08:19:21;;;;;;;;;0.33;0.33;;;;;;;;5077118;27;45197;-74
2022/08/21 08:21:46;;;;;;;;;0.00;0.00;;;;;;;;5075697;27;46468;-74
2022/08/21 08:24:12;;;;;;;;;0.67;0.67;;;;;;;;5076884;27;45213;-74
2022/08/21 08:26:37;;;;;;;;;0.00;0.00;;;;;;;;5076713;27;45349;-74
2022/08/21 08:29:02;;;;;;;;;0.00;0.00;;;;;;;;5076914;28;45287;-75
2022/08/21 08:31:27;;;;;;;;;0.00;0.00;;;;;;;;5076465;27;47025;-75
2022/08/21 08:33:53;;;;;;;;;0.00;0.00;;;;;;;;5076709;27;45411;-74
2022/08/21 08:36:18;;;;;;;;;0.00;0.00;;;;;;;;5076041;28;45265;-75
2022/08/21 08:38:44;;;;;;;;;0.00;0.00;;;;;;;;5076794;27;45169;-74
2022/08/21 08:41:18;;;;;;;;;0.00;0.00;;;;;;;;5076522;27;47056;-75
2022/08/21 08:43:51;;;;;;;;;0.00;0.00;;;;;;;;5076175;27;45418;-74
2022/08/21 08:46:19;;;;;;;;;3.00;0.00;;;;;;;;5076383;28;45282;-75
2022/08/21 08:48:47;;;;;;;;;0.33;0.33;;;;;;;;5076370;27;45392;-75
2022/08/21 08:51:26;;;;;;;;;1.67;1.67;;;;;;;;5076171;28;45339;-74
2022/08/21 08:54:04;;;;;;;;;0.00;0.00;;;;;;;;5057788;27;45275;-75
2022/08/21 08:56:32;;;;;;;;;0.33;0.00;;;;;;;;5076760;27;45495;-74
2022/08/21 08:59:01;;;;;;;;;0.33;0.33;;;;;;;;5076128;27;45542;-75
2022/08/21 09:01:26;;;;;;;;;1.00;1.00;;;;;;;;5075943;27;46287;-75
2022/08/21 09:03:51;;;;;;;;;0.00;0.00;;;;;;;;5076108;27;45371;-75
2022/08/21 09:06:34;;;;;;;;;0.00;0.00;;;;;;;;5076532;27;45724;-75
2022/08/21 09:08:59;;;;;;;;;1.00;1.00;;;;;;;;5076054;27;45383;-74
2022/08/21 09:11:41;;;;;;;;;0.67;0.67;;;;;;;;5076254;27;47265;-75
2022/08/21 09:14:12;;;;;;;;;2.00;0.33;;;;;;;;5075501;27;45535;-74
2022/08/21 09:16:40;;;;;;;;;0.67;0.00;;;;;;;;5075791;27;45505;-75
2022/08/21 09:19:05;;;;;;;;;0.00;0.00;;;;;;;;5075926;27;45464;-75
2022/08/21 09:21:49;;;;;;;;;0.25;0.25;;;;;;;;5075830;27;45505;-75
2022/08/21 09:24:27;;;;;;;;;0.33;0.00;;;;;;;;5075755;27;45255;-75
2022/08/21 09:27:06;;;;;;;;;2.00;0.33;;;;;;;;5075708;27;45368;-74
2022/08/21 09:29:34;;;;;;;;;0.00;0.00;;;;;;;;5075848;28;45343;-74
2022/08/21 09:31:59;;;;;;;;;1.00;1.00;;;;;;;;5057336;28;47002;-75
2022/08/21 09:34:26;;;;;;;;;1.00;0.33;;;;;;;;5074522;28;45233;-75
2022/08/21 09:36:52;;;;;;;;;0.00;0.00;;;;;;;;5075490;27;45405;-75
2022/08/21 09:39:26;;;;;;;;;0.00;0.00;;;;;;;;5075880;28;45415;-76
2022/08/21 09:41:58;;;;;;;;;0.33;0.33;;;;;;;;5075365;28;46122;-75
2022/08/21 09:44:27;;;;;;;;;0.00;0.00;;;;;;;;5075367;27;45414;-75
2022/08/21 09:46:52;;;;;;;;;0.00;0.00;;;;;;;;5075168;27;45422;-75
2022/08/21 09:49:26;;;;;;;;;2.00;1.00;;;;;;;;5075264;28;45571;-74
2022/08/21 09:51:53;;;;;;;;;1.33;0.00;;;;;;;;5075536;27;46394;-75
2022/08/21 09:54:22;;;;;;;;;0.00;0.00;;;;;;;;5075355;28;45465;-74
2022/08/21 09:59:34;;;;;;;;;0.33;0.33;;;;;;;;5065508;27;45439;-75
2022/08/21 10:02:01;;;;;;;;;0.33;0.33;;;;;;;;5075274;27;46376;-74
2022/08/21 10:04:35;;;;;;;;;0.67;0.67;;;;;;;;5075131;27;45458;-75
2022/08/21 10:07:11;;;;;;;;;1.00;0.00;;;;;;;;5075511;28;45463;-75
2022/08/21 10:09:37;;;;;;;;;0.00;0.00;;;;;;;;5062128;28;45559;-75
2022/08/21 10:12:15;;;;;;;;;1.67;0.67;;;;;;;;5074940;28;46295;-74
2022/08/21 10:14:53;;;;;;;;;0.00;0.00;;;;;;;;5061775;28;45383;-75
2022/08/21 10:17:29;;;;;;;;;0.00;0.00;;;;;;;;5074830;27;45296;-74
2022/08/21 10:20:01;;;;;;;;;0.00;0.00;;;;;;;;5074912;27;45412;-74
2022/08/21 10:22:36;;;;;;;;;0.67;0.67;;;;;;;;5075006;27;45650;-75
2022/08/21 10:25:07;;;;;;;;;0.00;0.00;;;;;;;;5074905;27;45427;-75
2022/08/21 10:28:04;;;;;;;;;1.00;0.67;;;;;;;;5075299;27;45354;-74
2022/08/21 10:30:36;;;;;;;;;0.00;0.00;;;;;;;;5012498;28;45576;-74
2022/08/21 10:33:07;;;;;;;;;0.33;0.33;;;;;;;;5012180;28;47113;-74
2022/08/21 10:36:01;;;;;;;;;0.00;0.00;;;;;;;;4995588;28;45330;-74
2022/08/21 10:38:42;;;;;;;;;0.00;0.00;;;;;;;;4995446;28;45556;-74
2022/08/21 10:41:28;;;;;;;;;1.67;1.00;;;;;;;;5012432;28;45563;-75
2022/08/21 10:44:02;;;;;;;;;0.33;0.33;;;;;;;;5011244;28;46276;-74
2022/08/21 10:46:43;;;;;;;;;0.00;0.00;;;;;;;;5015196;28;45417;-75
2022/08/21 10:49:14;;;;;;;;;0.67;0.67;;;;;;;;5015740;28;45460;-77
2022/08/21 10:51:57;;;;;;;;;0.00;0.00;;;;;;;;5015940;28;45305;-76
2022/08/21 10:54:42;;;;;;;;;0.33;0.33;;;;;;;;5015302;28;47383;-75
2022/08/21 10:57:19;;;;;;;;;1.00;0.00;;;;;;;;4998994;28;45545;-76
2022/08/21 10:59:51;;;;;;;;;1.67;1.00;;;;;;;;5015611;28;45475;-76
2022/08/21 11:02:20;;;;;;;;;0.00;0.00;;;;;;;;5029871;28;45452;-75
2022/08/21 11:04:45;;;;;;;;;0.67;0.00;;;;;;;;5055359;28;45462;-75
2022/08/21 11:07:16;;;;;;;;;0.00;0.00;;;;;;;;5095538;27;45333;-75
2022/08/21 11:09:43;;;;;;;;;0.00;0.00;;;;;;;;5098537;27;45468;-74
2022/08/21 11:12:10;;;;;;;;;0.00;0.00;;;;;;;;5098573;27;45400;-75
2022/08/21 11:14:48;;;;;;;;;0.00;0.00;;;;;;;;5097379;27;46429;-75
2022/08/21 11:17:16;;;;;;;;;0.67;0.67;;;;;;;;5098371;27;45220;-74
2022/08/21 11:19:59;;;;;;;;;0.67;0.00;;;;;;;;5098363;27;45736;-75
2022/08/21 11:22:40;;;;;;;;;0.33;0.33;;;;;;;;5098174;27;45264;-75
2022/08/21 11:25:08;;;;;;;;;0.00;0.00;;;;;;;;5097917;27;46141;-75
2022/08/21 11:27:41;;;;;;;;;1.00;1.00;;;;;;;;5098253;27;45286;-75
2022/08/21 11:30:08;;;;;;;;;0.00;0.00;;;;;;;;5097798;27;45270;-74
2022/08/21 11:32:45;;;;;;;;;0.67;0.00;;;;;;;;5097893;27;45485;-75
2022/08/21 11:35:17;;;;;;;;;1.00;1.00;;;;;;;;5097511;27;45575;-74
2022/08/21 11:37:55;;;;;;;;;2.00;0.00;;;;;;;;5097575;27;45387;-74
2022/08/21 11:40:29;;;;;;;;;0.00;0.00;;;;;;;;5097420;27;45287;-75
2022/08/21 11:42:54;;;;;;;;;0.00;0.00;;;;;;;;5097525;27;45536;-74
2022/08/21 11:45:22;;;;;;;;;0.00;0.00;;;;;;;;5095956;27;47943;-75
2022/08/21 11:48:14;;;;;;;;;0.33;0.33;;;;;;;;5098030;27;45445;-74
2022/08/21 11:50:40;;;;;;;;;1.00;1.00;;;;;;;;5054709;28;45402;-73
2022/08/21 11:53:14;;;;;;;;;0.00;0.00;;;;;;;;5054897;28;45550;-76
2022/08/21 11:55:59;;;;;;;;;0.00;0.00;;;;;;;;5054122;28;46901;-76
2022/08/21 11:58:34;;;;;;;;;0.00;0.00;;;;;;;;5054523;28;45423;-77
2022/08/21 12:01:03;;;;;;;;;0.00;0.00;;;;;;;;5054778;28;45399;-76
2022/08/21 12:03:33;;;;;;;;;0.67;0.67;;;;;;;;5054551;28;45584;-76
2022/08/21 12:05:59;;;;;;;;;0.00;0.00;;;;;;;;5054388;28;46197;-76
2022/08/21 12:08:35;;;;;;;;;1.00;1.00;;;;;;;;5054549;28;45455;-76
2022/08/21 12:11:00;;;;;;;;;1.00;1.00;;;;;;;;5054828;28;45438;-74
2022/08/21 12:13:28;;;;;;;;;1.00;1.00;;;;;;;;5053840;28;45820;-74
2022/08/21 12:16:04;;;;;;;;;0.00;0.00;;;;;;;;5054251;28;47220;-75
2022/08/21 12:18:33;;;;;;;;;0.00;0.00;;;;;;;;5042683;28;45482;-75
2022/08/21 12:21:04;;;;;;;;;0.67;0.67;;;;;;;;5054381;28;45321;-76
2022/08/21 12:23:42;;;;;;;;;0.67;0.00;;;;;;;;5037394;28;45699;-74
2022/08/21 12:26:27;;;;;;;;;0.00;0.00;;;;;;;;5054363;28;46118;-74
2022/08/21 12:29:03;;;;;;;;;0.00;0.00;;;;;;;;5093408;27;45440;-75
2022/08/21 12:31:29;;;;;;;;;0.33;0.33;;;;;;;;5096966;27;45252;-75
2022/08/21 12:33:58;;;;;;;;;2.00;0.00;;;;;;;;5097288;27;45509;-75
2022/08/21 12:36:25;;;;;;;;;0.33;0.00;;;;;;;;5096609;27;45308;-75
2022/08/21 12:39:05;;;;;;;;;1.00;1.00;;;;;;;;5096960;27;45472;-75
2022/08/21 12:41:33;;;;;;;;;0.00;0.00;;;;;;;;5096875;27;45389;-76
2022/08/21 12:44:06;;;;;;;;;1.67;1.67;;;;;;;;5096367;27;45587;-74
2022/08/21 12:46:39;;;;;;;;;0.33;0.33;;;;;;;;5096686;27;46146;-75
2022/08/21 12:49:12;;;;;;;;;0.00;0.00;;;;;;;;5096802;27;45373;-75
2022/08/21 12:51:50;;;;;;;;;1.00;0.33;;;;;;;;5096977;27;45272;-75
2022/08/21 12:54:36;;;;;;;;;0.00;0.00;;;;;;;;5097020;27;45219;-74
2022/08/21 12:57:03;;;;;;;;;0.33;0.33;;;;;;;;5096116;27;46292;-75
2022/08/21 12:59:29;;;;;;;;;1.00;1.00;;;;;;;;5096907;27;45372;-74
2022/08/21 13:01:55;;;;;;;;;1.00;1.00;;;;;;;;5092208;27;45462;-74
2022/08/21 13:04:41;;;;;;;;;2.33;1.00;;;;;;;;5076227;28;45422;-74
2022/08/21 13:07:11;;;;;;;;;1.00;1.00;;;;;;;;5076075;27;46220;-76
2022/08/21 13:09:42;;;;;;;;;0.00;0.00;;;;;;;;5074686;28;45457;-75
2022/08/21 13:12:08;;;;;;;;;1.00;1.00;;;;;;;;5076077;28;45450;-75
2022/08/21 13:14:35;;;;;;;;;1.67;1.67;;;;;;;;5075734;27;45671;-75
2022/08/21 13:17:03;;;;;;;;;1.00;1.00;;;;;;;;5075878;28;46272;-74
2022/08/21 13:19:29;;;;;;;;;0.33;0.33;;;;;;;;5058059;28;45396;-74
2022/08/21 13:21:54;;;;;;;;;1.00;1.00;;;;;;;;5076277;27;45338;-75
2022/08/21 13:24:22;;;;;;;;;0.00;0.00;;;;;;;;5075505;27;45424;-74
2022/08/21 13:26:48;;;;;;;;;1.00;1.00;;;;;;;;5075490;28;46223;-73
2022/08/21 13:29:15;;;;;;;;;1.00;1.00;;;;;;;;5076008;28;45421;-75
2022/08/21 13:31:42;;;;;;;;;0.00;0.00;;;;;;;;5075833;27;45436;-75
2022/08/21 13:34:10;;;;;;;;;2.33;0.00;;;;;;;;5057279;28;46194;-75
2022/08/21 13:36:40;;;;;;;;;0.67;0.67;;;;;;;;5075330;28;46221;-75
2022/08/21 13:39:08;;;;;;;;;1.33;1.33;;;;;;;;5057180;28;45414;-75
2022/08/21 13:41:35;;;;;;;;;1.00;1.00;;;;;;;;5075447;27;45359;-74
2022/08/21 13:44:01;;;;;;;;;0.00;0.00;;;;;;;;5075517;27;45475;-74
2022/08/21 13:46:29;;;;;;;;;1.00;1.00;;;;;;;;5075476;28;47442;-76
2022/08/21 13:48:55;;;;;;;;;0.00;0.00;;;;;;;;5075342;28;45424;-74
2022/08/21 13:51:20;;;;;;;;;0.00;0.00;;;;;;;;5075884;28;45215;-74
2022/08/21 13:53:51;;;;;;;;;1.00;0.33;;;;;;;;5075149;27;45285;-74
2022/08/21 13:56:22;;;;;;;;;0.33;0.33;;;;;;;;5075350;27;46365;-76
2022/08/21 13:58:47;;;;;;;;;1.33;1.00;;;;;;;;5075550;27;45566;-74
2022/08/21 14:01:20;;;;;;;;;1.00;1.00;;;;;;;;5075709;28;45425;-74
2022/08/21 14:03:47;;;;;;;;;1.00;1.00;;;;;;;;5075463;27;45605;-74
2022/08/21 14:06:16;;;;;;;;;2.67;0.00;;;;;;;;5075149;28;46888;-74
2022/08/21 14:08:42;;;;;;;;;0.00;0.00;;;;;;;;5074979;27;45513;-74
2022/08/21 14:11:10;;;;;;;;;1.33;1.33;;;;;;;;5075480;27;45413;-74
2022/08/21 14:13:39;;;;;;;;;2.33;1.00;;;;;;;;5056717;28;45386;-75
2022/08/21 14:16:21;;;;;;;;;0.00;0.00;;;;;;;;5075298;27;45999;-74
2022/08/21 14:18:53;;;;;;;;;0.00;0.00;;;;;;;;5072725;28;45426;-74
2022/08/21 14:21:45;;;;;;;;;0.00;0.00;;;;;;;;5078493;27;45401;-75
2022/08/21 14:24:25;;;;;;;;;1.33;0.33;;;;;;;;5075360;27;45315;-75
2022/08/21 14:26:50;;;;;;;;;0.00;0.00;;;;;;;;5078495;27;46321;-75
2022/08/21 14:29:16;;;;;;;;;1.00;1.00;;;;;;;;5078456;27;45496;-75
2022/08/21 14:31:42;;;;;;;;;1.00;1.00;;;;;;;;5060545;27;45422;-75
2022/08/21 14:34:09;;;;;;;;;0.33;0.33;;;;;;;;5078593;27;45352;-75
2022/08/21 14:36:34;;;;;;;;;0.00;0.00;;;;;;;;5077799;27;45535;-75
2022/08/21 14:39:00;;;;;;;;;1.00;1.00;;;;;;;;5077998;27;45479;-75
2022/08/21 14:41:28;;;;;;;;;1.00;1.00;;;;;;;;5078306;27;45362;-75
2022/08/21 14:43:55;;;;;;;;;0.67;0.67;;;;;;;;5078478;27;45324;-75
2022/08/21 14:46:22;;;;;;;;;1.00;1.00;;;;;;;;5078393;27;45225;-76
2022/08/21 14:48:48;;;;;;;;;0.00;0.00;;;;;;;;5078419;27;45388;-75
2022/08/21 14:51:14;;;;;;;;;0.00;0.00;;;;;;;;5078536;27;45261;-75